Time;durP1;ratioP1;P1;durP2;ratioP2;P2;SDS_P1;SDS_P2;PMS_P1;PMS_P2;Temp;Humidity;BMP_temperature;BMP_pressure;BME280_temperature;BME280_humidity;BME280_pressure;Samples;Min_cycle;Max_cycle;Signal;HPM_P1;HPM_P2
2022/09/26 00:04:52;;;;;;;30.10;21.73;;;;;;;12.78;78.68;99688.83;3350645;87;98569;-89
2022/09/26 00:09:54;;;;;;;30.27;22.00;;;;;;;12.73;78.68;99686.50;3357106;87;26368;-90
2022/09/26 00:14:55;;;;;;;36.00;23.63;;;;;;;12.66;79.08;99673.57;3357407;85;99003;-90
2022/09/26 00:19:56;;;;;;;31.37;22.85;;;;;;;12.61;79.37;99667.69;3365501;85;28873;-90
2022/09/26 00:24:57;;;;;;;33.13;23.70;;;;;;;12.57;79.64;99664.17;3367523;85;98719;-90
2022/09/26 00:29:58;;;;;;;34.87;24.37;;;;;;;12.51;79.92;99668.56;3370216;85;26555;-90
2022/09/26 00:34:58;;;;;;;32.73;22.97;;;;;;;12.44;80.14;99666.64;3364275;85;98797;-90
2022/09/26 00:39:59;;;;;;;32.00;23.67;;;;;;;12.37;80.40;99657.67;3346301;87;26283;-90
2022/09/26 00:45:00;;;;;;;31.62;22.77;;;;;;;12.28;80.46;99646.30;3346086;85;98880;-90
2022/09/26 00:50:07;;;;;;;31.47;23.13;;;;;;;12.19;80.67;99644.59;3338554;87;33190;-90
2022/09/26 00:55:11;;;;;;;31.57;23.38;;;;;;;12.12;81.08;99646.04;3355078;85;98706;-90
2022/09/26 01:00:16;;;;;;;33.27;24.53;;;;;;;12.04;81.24;99639.78;3325375;85;26713;-90
2022/09/26 01:05:20;;;;;;;30.40;22.87;;;;;;;11.88;81.65;99643.64;3349028;85;99045;-90
2022/09/26 01:10:23;;;;;;;34.83;24.77;;;;;;;11.88;81.65;99643.64;3364521;85;26748;-90
2022/09/26 01:15:24;;;;;;;32.93;24.50;;;;;;;11.78;81.71;99642.34;3358344;85;98706;-90
2022/09/26 01:20:31;;;;;;;36.03;25.40;;;;;;;11.67;81.84;99633.36;3357663;85;33563;-90
2022/09/26 01:25:47;;;;;;;;;;;;;;;11.59;82.08;99635.37;3345328;87;98729;-90
2022/09/26 01:31:01;;;;;;;34.77;23.27;;;;;;;11.49;83.00;99625.16;3365039;85;25937;-90
2022/09/26 01:36:42;;;;;;;34.63;24.83;;;;;;;11.42;82.66;99629.34;3365213;85;98418;-90
2022/09/26 01:42:04;;;;;;;33.40;24.50;;;;;;;11.34;82.74;99617.38;3345606;87;99111;-89
2022/09/26 01:47:28;;;;;;;32.17;23.67;;;;;;;11.27;83.19;99616.81;3362264;86;26215;-89
2022/09/26 01:52:52;;;;;;;33.10;23.87;;;;;;;11.22;83.40;99615.84;3351391;85;98727;-89
2022/09/26 01:58:10;;;;;;;36.65;24.65;;;;;;;11.14;83.48;99609.39;3357114;85;25888;-89
2022/09/26 02:03:16;;;;;;;32.38;24.37;;;;;;;11.08;83.87;99606.87;3352140;87;98904;-89
2022/09/26 02:08:47;;;;;;;28.32;19.65;;;;;;;11.02;83.68;99609.23;3382192;87;26274;-89
2022/09/26 02:14:02;;;;;;;37.43;25.90;;;;;;;10.86;84.22;99600.64;3367687;85;99016;-90
2022/09/26 02:19:23;;;;;;;35.05;24.67;;;;;;;10.82;84.36;99599.89;3365181;85;25891;-89
2022/09/26 02:24:24;;;;;;;36.63;24.00;;;;;;;10.80;84.51;99590.45;3366670;85;99039;-90
2022/09/26 02:29:25;;;;;;;34.77;23.63;;;;;;;10.75;84.87;99586.12;3369188;85;33307;-90
2022/09/26 02:34:26;;;;;;;34.00;24.37;;;;;;;10.71;84.80;99575.75;3361833;85;98925;-90
2022/09/26 02:39:27;;;;;;;33.17;23.00;;;;;;;10.69;85.04;99564.33;3380576;86;33320;-90
2022/09/26 02:45:05;;;;;;;37.67;23.60;;;;;;;10.65;85.05;99560.03;3358810;87;98967;-89
2022/09/26 02:50:24;;;;;;;33.73;22.97;;;;;;;10.61;85.08;99575.76;3374159;85;26453;-90
2022/09/26 02:56:10;;;;;;;37.08;24.02;;;;;;;10.50;85.42;99561.25;3345678;85;98602;-89
2022/09/26 03:01:41;;;;;;;32.60;22.60;;;;;;;10.46;85.79;99568.14;3325582;86;98716;-89
2022/09/26 03:06:46;;;;;;;35.43;22.52;;;;;;;10.45;85.95;99561.65;3341097;86;26081;-89
2022/09/26 03:11:48;;;;;;;33.73;23.43;;;;;;;10.42;86.28;99567.35;3338103;86;99159;-89
2022/09/26 03:16:51;;;;;;;33.87;22.47;;;;;;;10.41;86.16;99559.52;3326436;87;26145;-90
2022/09/26 03:21:53;;;;;;;32.70;23.15;;;;;;;10.41;86.21;99565.02;3343157;85;98890;-89
2022/09/26 03:26:54;;;;;;;32.93;23.50;;;;;;;10.34;86.60;99563.64;3342056;86;26176;-88
2022/09/26 03:31:55;;;;;;;30.47;21.27;;;;;;;10.35;86.89;99552.86;3339477;87;98945;-88
2022/09/26 03:36:56;;;;;;;29.10;20.53;;;;;;;10.36;87.05;99538.69;3366926;86;33255;-89
2022/09/26 03:41:57;;;;;;;32.37;22.90;;;;;;;10.35;87.34;99537.73;3337891;86;99012;-89
2022/09/26 03:46:58;;;;;;;32.67;21.70;;;;;;;10.39;87.60;99545.36;3345560;86;33245;-89
2022/09/26 03:51:59;;;;;;;30.80;21.33;;;;;;;10.39;87.30;99539.28;3314918;87;98905;-89
2022/09/26 03:57:00;;;;;;;38.67;23.23;;;;;;;10.41;87.55;99540.27;3365704;86;33126;-89
2022/09/26 04:02:01;;;;;;;32.77;23.00;;;;;;;10.42;87.50;99538.47;3335649;86;98884;-89
2022/09/26 04:07:02;;;;;;;30.10;21.67;;;;;;;10.43;87.54;99551.07;3344134;87;33525;-89
2022/09/26 04:12:03;;;;;;;33.73;23.83;;;;;;;10.43;87.53;99540.06;3359369;86;99334;-89
2022/09/26 04:17:04;;;;;;;31.80;22.60;;;;;;;10.44;87.79;99529.25;3373534;86;33261;-89
2022/09/26 04:22:06;;;;;;;36.00;22.93;;;;;;;10.47;87.67;99527.67;3345930;87;98800;-89
2022/09/26 04:27:08;;;;;;;31.12;21.30;;;;;;;10.47;87.91;99515.30;3348927;87;34235;-89
2022/09/26 04:32:08;;;;;;;33.27;22.63;;;;;;;10.46;87.99;99510.38;3355434;86;98870;-88
2022/09/26 04:37:10;;;;;;;33.27;22.80;;;;;;;10.49;88.03;99515.67;3347429;86;31686;-88
2022/09/26 04:42:11;;;;;;;34.37;24.00;;;;;;;10.50;88.37;99513.91;3343178;87;98635;-87
2022/09/26 04:47:12;;;;;;;32.90;22.13;;;;;;;10.51;88.25;99515.47;3334212;87;31644;-88
2022/09/26 04:52:13;;;;;;;35.87;24.43;;;;;;;10.53;88.14;99521.34;3324330;87;99083;-88
2022/09/26 04:57:14;;;;;;;33.57;23.10;;;;;;;10.54;88.30;99523.52;3334937;87;31584;-88
2022/09/26 05:02:16;;;;;;;37.00;23.10;;;;;;;10.54;87.98;99514.69;3330151;87;99018;-89
2022/09/26 05:07:17;;;;;;;29.60;22.53;;;;;;;10.56;88.39;99511.51;3335233;87;31722;-88
2022/09/26 05:12:18;;;;;;;33.70;23.37;;;;;;;10.57;88.26;99516.62;3333973;87;98678;-89
2022/09/26 05:17:19;;;;;;;32.23;21.80;;;;;;;10.60;88.26;99519.97;3337079;87;31674;-88
2022/09/26 05:22:20;;;;;;;34.13;23.30;;;;;;;10.60;88.37;99518.59;3301586;86;98976;-88
2022/09/26 05:27:23;;;;;;;33.70;23.57;;;;;;;10.63;88.46;99514.26;3336248;87;31673;-88
2022/09/26 05:32:24;;;;;;;30.03;20.80;;;;;;;10.66;88.44;99512.86;3402093;85;98855;-87
2022/09/26 05:37:25;;;;;;;33.87;23.30;;;;;;;10.70;88.41;99514.22;3383672;85;31660;-88
2022/09/26 05:42:26;;;;;;;33.13;21.10;;;;;;;10.74;88.48;99520.50;3396274;85;99130;-88
2022/09/26 05:47:27;;;;;;;28.90;21.87;;;;;;;10.77;88.44;99510.85;3400412;85;31678;-88
2022/09/26 05:52:28;;;;;;;30.37;20.23;;;;;;;10.82;88.40;99503.55;3398887;84;99039;-89
2022/09/26 05:57:28;;;;;;;32.70;22.17;;;;;;;10.87;88.37;99496.26;3465676;82;31773;-88
2022/09/26 06:02:29;;;;;;;33.63;22.53;;;;;;;10.93;88.55;99497.41;3474942;82;98962;-89
2022/09/26 06:07:31;;;;;;;38.87;26.70;;;;;;;11.01;88.71;99509.17;3473632;84;26209;-89
2022/09/26 06:12:33;;;;;;;35.38;25.23;;;;;;;11.08;90.22;99515.42;3475961;84;98899;-89
2022/09/26 06:17:35;;;;;;;35.23;25.43;;;;;;;11.15;91.09;99519.50;3483093;82;32642;-89
2022/09/26 06:22:41;;;;;;;37.33;25.13;;;;;;;11.24;92.06;99528.70;3465316;82;98950;-89
2022/09/26 06:27:42;;;;;;;40.38;26.62;;;;;;;11.33;92.05;99537.30;3472998;83;25956;-89
2022/09/26 06:32:45;;;;;;;31.87;22.77;;;;;;;11.42;92.86;99526.60;3486775;82;98738;-88
2022/09/26 06:37:47;;;;;;;34.83;24.47;;;;;;;11.71;92.86;99539.80;3487478;83;31680;-89
2022/09/26 06:42:48;;;;;;;36.23;24.82;;;;;;;11.71;92.86;99539.80;3459872;83;98947;-89
2022/09/26 06:47:49;;;;;;;36.30;25.20;;;;;;;11.93;93.95;99535.69;3446650;82;26413;-89
2022/09/26 06:52:50;;;;;;;37.50;25.20;;;;;;;12.14;94.63;99530.56;3458650;83;99072;-89
2022/09/26 06:57:52;;;;;;;35.30;24.10;;;;;;;12.43;95.22;99541.52;3453878;83;36606;-89
2022/09/26 07:02:55;;;;;;;32.27;22.70;;;;;;;12.70;94.90;99538.26;3431293;83;98730;-88
2022/09/26 07:07:56;;;;;;;27.90;21.00;;;;;;;12.97;94.72;99534.38;3455011;83;32166;-89
2022/09/26 07:13:04;;;;;;;30.97;20.73;;;;;;;13.30;95.01;99542.44;3452800;83;98882;-88
2022/09/26 07:18:06;;;;;;;29.80;19.62;;;;;;;13.64;94.70;99528.70;3477339;83;32245;-89
2022/09/26 07:23:09;;;;;;;28.27;20.37;;;;;;;14.01;94.43;99527.70;3460929;84;98920;-89
2022/09/26 07:28:11;;;;;;;26.15;19.62;;;;;;;14.32;93.82;99527.16;3483626;83;31638;-90
2022/09/26 07:33:12;;;;;;;28.53;20.33;;;;;;;14.62;93.55;99519.27;3470033;82;98663;-89
2022/09/26 07:38:13;;;;;;;26.97;19.03;;;;;;;14.96;92.96;99526.08;3474151;82;27889;-87
2022/09/26 07:43:13;;;;;;;26.77;18.17;;;;;;;15.22;91.83;99526.52;3446894;82;99051;-87
2022/09/26 07:53:34;;;;;;;22.53;16.53;;;;;;;15.75;91.08;99522.54;3472289;82;98702;-87
2022/09/26 07:58:40;;;;;;;21.77;15.07;;;;;;;16.06;90.35;99530.06;3442767;84;26220;-87
2022/09/26 08:03:46;;;;;;;21.00;14.00;;;;;;;16.33;89.61;99527.77;3397531;84;98657;-87
2022/09/26 08:08:48;;;;;;;;;;;;;;;16.64;88.79;99530.34;3401480;83;26942;-86
2022/09/26 08:13:49;;;;;;;19.75;13.43;;;;;;;16.88;86.33;99523.89;3430105;84;85165;-87
2022/09/26 08:18:52;;;;;;;15.30;9.70;;;;;;;17.06;87.44;99524.93;3412636;83;30417;-87
2022/09/26 08:23:54;;;;;;;13.43;8.70;;;;;;;17.33;85.47;99528.72;3394179;83;98676;-87
2022/09/26 08:28:55;;;;;;;16.05;11.65;;;;;;;17.49;85.32;99534.97;3435565;83;32124;-86
2022/09/26 08:33:56;;;;;;;13.83;9.80;;;;;;;17.74;84.66;99534.98;3433703;83;98700;-87
2022/09/26 08:38:58;;;;;;;16.12;11.73;;;;;;;17.95;84.00;99534.30;3446102;83;31424;-87
2022/09/26 08:50:49;;;;;;;17.73;11.03;;;;;;;18.05;82.06;99530.98;3552010;78;30288;-84
2022/09/26 08:55:52;;;;;;;13.15;8.78;;;;;;;18.03;80.93;99535.60;3548563;81;98585;-84
2022/09/26 09:00:58;;;;;;;12.43;8.90;;;;;;;18.05;80.20;99538.70;3567863;81;25781;-84
2022/09/26 09:06:04;;;;;;;14.35;10.18;;;;;;;17.95;79.89;99534.30;3547633;81;98707;-83
2022/09/26 09:11:25;;;;;;;;;;;;;;;18.01;78.90;99531.70;3563597;81;26531;-82
2022/09/26 09:16:57;;;;;;;17.98;11.65;;;;;;;17.79;76.89;99539.98;3573526;80;25844;-84
2022/09/26 09:22:15;;;;;;;20.85;10.45;;;;;;;17.68;78.16;99533.20;3573307;81;98724;-84
2022/09/26 09:27:42;;;;;;;15.68;11.30;;;;;;;17.56;77.65;99528.42;3564090;81;25944;-83
2022/09/26 09:33:00;;;;;;;15.15;11.48;;;;;;;17.47;77.69;99532.47;3561519;81;98760;-83
2022/09/26 09:38:02;;;;;;;15.25;11.38;;;;;;;17.38;77.71;99529.56;3546943;81;26541;-84
2022/09/26 09:43:17;;;;;;;14.18;10.20;;;;;;;17.37;77.57;99534.33;3508961;81;98651;-83
2022/09/26 09:48:18;;;;;;;13.23;8.33;;;;;;;17.43;77.52;99538.77;3433982;84;26097;-84
2022/09/26 09:53:46;;;;;;;13.03;9.08;;;;;;;17.46;77.46;99539.26;3412422;85;98571;-84
2022/09/26 09:59:04;;;;;;;11.43;7.97;;;;;;;17.56;77.13;99533.98;3392563;85;31622;-83
2022/09/26 10:04:33;;;;;;;10.55;7.10;;;;;;;17.75;77.82;99535.74;3400615;83;98556;-84
2022/09/26 10:09:40;;;;;;;9.43;6.72;;;;;;;18.01;76.99;99541.45;3396752;85;31697;-84
2022/09/26 10:14:54;;;;;;;13.10;7.15;;;;;;;18.18;74.36;99535.90;3401981;85;98154;-85
2022/09/26 10:19:55;;;;;;;11.12;7.90;;;;;;;18.07;73.29;99534.88;3411716;84;26484;-84
2022/09/26 10:25:07;;;;;;;10.03;6.50;;;;;;;18.11;73.30;99530.58;3478304;82;98613;-83
2022/09/26 10:30:25;;;;;;;10.55;5.90;;;;;;;18.10;72.15;99532.58;3500873;82;31713;-85
2022/09/26 10:35:40;;;;;;;9.95;4.05;;;;;;;18.10;71.65;99531.18;3503761;82;98383;-83
2022/09/26 10:40:53;;;;;;;7.00;3.65;;;;;;;18.10;72.05;99520.67;3506712;82;32225;-84
2022/09/26 10:46:14;;;;;;;8.65;4.45;;;;;;;18.22;70.79;99523.44;3507857;82;98019;-82
2022/09/26 10:51:29;;;;;;;7.90;4.70;;;;;;;18.31;70.07;99517.92;3504501;82;98403;-84
2022/09/26 10:56:37;;;;;;;12.78;6.17;;;;;;;18.37;70.16;99522.36;3512497;82;26574;-83
2022/09/26 11:01:45;;;;;;;12.18;5.50;;;;;;;18.57;69.78;99512.46;3512643;82;98682;-84
2022/09/26 11:06:48;;;;;;;9.05;4.80;;;;;;;18.59;69.27;99512.77;3527662;82;32212;-84
2022/09/26 11:11:51;;;;;;;10.40;5.17;;;;;;;18.68;70.07;99505.09;3513135;84;98541;-83
2022/09/26 11:16:54;;;;;;;11.28;5.42;;;;;;;18.75;68.71;99510.44;3522041;84;26034;-84
2022/09/26 11:22:13;;;;;;;11.97;5.22;;;;;;;18.68;68.52;99514.85;3519964;82;98680;-84
2022/09/26 11:27:43;;;;;;;8.00;5.10;;;;;;;18.75;67.96;99498.65;3492465;82;26564;-84
2022/09/26 11:32:52;;;;;;;7.92;4.67;;;;;;;18.76;68.41;99493.87;3518085;82;98425;-84
2022/09/26 11:38:08;;;;;;;10.63;4.17;;;;;;;18.73;67.82;99491.97;3512727;83;32941;-83
2022/09/26 11:43:43;;;;;;;7.27;3.67;;;;;;;18.55;66.56;99494.03;3504692;82;98567;-84
2022/09/26 11:49:09;;;;;;;6.63;3.57;;;;;;;18.28;66.57;99490.98;3514370;83;25914;-84
2022/09/26 11:54:32;;;;;;;8.63;3.62;;;;;;;18.21;67.57;99493.23;3514238;82;98371;-83
2022/09/26 12:00:05;;;;;;;7.62;3.20;;;;;;;18.04;66.76;99483.49;3515082;82;25830;-84
2022/09/26 12:05:27;;;;;;;11.65;4.20;;;;;;;17.89;67.13;99482.41;3517116;82;98339;-84
2022/09/26 12:10:43;;;;;;;8.08;4.05;;;;;;;17.64;66.78;99478.26;3496770;82;33145;-85
2022/09/26 12:16:28;;;;;;;9.20;4.20;;;;;;;17.42;67.10;99467.66;3501356;83;98247;-83
2022/09/26 12:27:46;;;;;;;11.85;7.17;;;;;;;17.12;69.41;99462.63;3514542;82;32077;-84
2022/09/26 12:33:11;;;;;;;14.60;8.43;;;;;;;16.98;70.72;99470.78;3510050;82;98531;-84
2022/09/26 12:38:24;;;;;;;23.42;7.90;;;;;;;16.69;71.34;99458.95;3522055;82;31731;-84
2022/09/26 12:43:50;;;;;;;11.63;7.35;;;;;;;16.56;72.61;99455.34;3496383;82;98743;-84
2022/09/26 12:49:02;;;;;;;13.58;6.10;;;;;;;16.49;73.24;99454.16;3520358;82;25975;-83
2022/09/26 12:54:20;;;;;;;11.53;6.27;;;;;;;16.26;72.33;99448.84;3528707;82;99042;-84
2022/09/26 12:59:59;;;;;;;10.05;4.65;;;;;;;15.96;72.35;99438.77;3531724;82;26252;-84
2022/09/26 13:05:30;;;;;;;6.83;3.42;;;;;;;15.89;72.47;99445.87;3528268;82;98304;-84
2022/09/26 13:11:07;;;;;;;13.75;4.60;;;;;;;15.87;72.58;99439.98;3511026;83;31722;-85
2022/09/26 13:16:30;;;;;;;;;;;;;;;15.84;71.71;99440.84;3487591;83;98346;-84
2022/09/26 13:21:46;;;;;;;7.58;3.33;;;;;;;15.85;72.11;99429.32;3483413;83;84830;-85
2022/09/26 13:27:02;;;;;;;6.17;2.60;;;;;;;15.85;71.96;99422.38;3465270;83;31668;-84
2022/09/26 13:32:26;;;;;;;5.13;2.50;;;;;;;15.90;71.65;99415.52;3461428;83;98384;-85
2022/09/26 13:37:41;;;;;;;7.17;2.37;;;;;;;15.93;71.89;99415.45;3470699;83;31704;-84
2022/09/26 13:42:50;;;;;;;5.58;2.40;;;;;;;15.97;72.02;99411.95;3467045;83;98588;-82
2022/09/26 13:48:00;;;;;;;7.10;2.60;;;;;;;16.00;71.16;99416.64;3493528;83;32335;-84
2022/09/26 13:53:15;;;;;;;5.25;2.40;;;;;;;15.90;70.90;99414.13;3460608;83;98793;-84
2022/09/26 13:58:24;;;;;;;4.37;1.92;;;;;;;15.94;71.33;99396.78;3463928;83;25872;-85
2022/09/26 14:03:33;;;;;;;4.62;1.87;;;;;;;15.94;70.59;99398.96;3461564;82;98732;-84
2022/09/26 14:14:21;;;;;;;3.85;1.20;;;;;;;16.10;71.27;99391.19;3477965;82;98529;-84
2022/09/26 14:19:47;;;;;;;6.15;1.50;;;;;;;16.01;67.58;99390.44;3484161;83;31702;-83
2022/09/26 14:24:51;;;;;;;2.58;1.32;;;;;;;15.94;67.55;99375.97;3470714;83;98975;-84
2022/09/26 14:30:15;;;;;;;3.70;1.40;;;;;;;15.87;67.55;99368.61;3478187;83;31776;-83
2022/09/26 14:35:19;;;;;;;3.22;1.20;;;;;;;15.86;67.46;99369.07;3476382;83;98188;-85
2022/09/26 14:40:28;;;;;;;6.15;2.30;;;;;;;15.80;66.96;99367.42;3509486;84;31685;-84
2022/09/26 14:45:38;;;;;;;7.47;2.35;;;;;;;15.74;67.45;99366.99;3434589;85;98666;-84
2022/09/26 14:51:02;;;;;;;3.83;1.65;;;;;;;15.70;66.91;99377.42;3417574;84;25909;-83
2022/09/26 14:56:09;;;;;;;5.70;1.53;;;;;;;15.55;66.68;99364.55;3347329;86;98027;-84
2022/09/26 15:01:21;;;;;;;4.90;1.75;;;;;;;15.44;66.66;99359.08;3397475;85;98557;-85
2022/09/26 15:06:24;;;;;;;6.87;2.25;;;;;;;15.42;66.58;99362.28;3394400;85;31692;-86
2022/09/26 15:11:37;;;;;;;5.60;2.05;;;;;;;15.37;65.82;99358.65;3402302;85;98612;-85
2022/09/26 15:16:46;;;;;;;8.08;2.60;;;;;;;15.28;66.31;99352.13;3400954;85;31765;-84
2022/09/26 15:22:00;;;;;;;6.72;2.50;;;;;;;15.23;67.22;99354.83;3413590;85;98740;-84
2022/09/26 15:27:25;;;;;;;7.87;2.85;;;;;;;15.22;68.00;99359.41;3397066;85;31717;-84
2022/09/26 15:32:28;;;;;;;6.12;2.10;;;;;;;15.21;68.79;99348.16;3395400;85;98856;-84
2022/09/26 15:37:35;;;;;;;6.90;2.52;;;;;;;15.12;69.13;99345.20;3395293;85;31761;-84
2022/09/26 15:48:00;;;;;;;6.92;2.95;;;;;;;14.91;70.13;99353.43;3412602;86;31781;-85
2022/09/26 15:53:15;;;;;;;8.20;3.67;;;;;;;14.78;70.68;99349.77;3395694;85;98551;-82
2022/09/26 15:58:22;;;;;;;9.15;3.85;;;;;;;14.69;71.31;99348.21;3399385;86;31781;-83
2022/09/26 16:03:44;;;;;;;9.68;4.12;;;;;;;14.59;71.80;99342.89;3398891;86;98340;-84
2022/09/26 16:08:50;;;;;;;10.38;3.67;;;;;;;14.45;72.47;99341.22;3411876;86;31810;-84
2022/09/26 16:13:52;;;;;;;8.83;3.87;;;;;;;14.35;72.88;99340.87;3403062;85;98598;-84
2022/09/26 16:19:02;;;;;;;9.58;4.47;;;;;;;14.23;73.45;99331.81;3410562;85;31703;-84
2022/09/26 16:24:33;;;;;;;8.90;4.10;;;;;;;14.14;73.52;99324.68;3387476;85;98468;-84
2022/09/26 16:29:35;;;;;;;12.43;4.60;;;;;;;14.09;73.77;99329.91;3396695;85;31687;-85
2022/09/26 16:34:36;;;;;;;10.35;4.25;;;;;;;13.99;74.25;99330.91;3381729;85;98876;-84
2022/09/26 16:39:38;;;;;;;12.67;4.20;;;;;;;13.91;74.54;99322.59;3401555;85;26519;-84
2022/09/26 16:44:44;;;;;;;10.78;3.85;;;;;;;13.80;75.04;99322.78;3396686;85;98538;-84
2022/09/26 16:49:47;;;;;;;13.87;6.73;;;;;;;13.68;75.21;99315.13;3414977;83;25865;-85
2022/09/26 16:54:48;;;;;;;11.35;5.33;;;;;;;13.61;75.57;99321.39;3477377;83;98612;-86
2022/09/26 16:59:51;;;;;;;15.32;9.23;;;;;;;13.47;76.19;99314.75;3473770;83;31813;-87
2022/09/26 17:04:53;;;;;;;11.83;6.40;;;;;;;13.34;76.66;99324.25;3484010;83;98679;-85
2022/09/26 17:09:54;;;;;;;13.05;7.12;;;;;;;13.23;77.26;99315.95;3488358;83;31651;-84
2022/09/26 17:14:55;;;;;;;12.70;6.90;;;;;;;13.11;77.68;99329.79;3483817;82;98816;-85
2022/09/26 17:19:58;;;;;;;12.90;6.53;;;;;;;13.00;78.06;99321.48;3496379;82;25888;-85
2022/09/26 17:24:59;;;;;;;13.37;6.13;;;;;;;12.88;78.72;99322.05;3510557;82;98590;-85
2022/09/26 17:30:03;;;;;;;13.43;7.07;;;;;;;12.77;78.92;99328.34;3491675;82;27667;-86
2022/09/26 17:35:18;;;;;;;18.15;8.33;;;;;;;12.65;79.40;99317.88;3527517;82;98381;-84
2022/09/26 17:40:23;;;;;;;16.17;8.53;;;;;;;12.55;79.70;99320.20;3525478;82;31674;-88
2022/09/26 17:45:32;;;;;;;15.53;8.67;;;;;;;12.33;80.16;99299.63;3523881;82;98391;-85
2022/09/26 17:50:35;;;;;;;24.10;13.80;;;;;;;12.36;80.57;99313.36;3526536;82;28849;-86
2022/09/26 17:55:36;;;;;;;17.95;10.80;;;;;;;12.23;81.23;99309.61;3492608;82;98797;-85
2022/09/26 18:00:39;;;;;;;16.83;10.30;;;;;;;12.12;81.33;99302.08;3514951;82;25880;-85
2022/09/26 18:05:40;;;;;;;27.87;17.40;;;;;;;12.02;81.67;99304.38;3516827;82;98716;-85
2022/09/26 18:10:52;;;;;;;39.60;28.57;;;;;;;12.01;82.06;99317.98;3508883;82;26876;-85
2022/09/26 18:15:57;;;;;;;59.33;44.67;;;;;;;11.72;82.39;99289.17;3514818;82;98595;-86
2022/09/26 18:21:02;;;;;;;54.75;38.65;;;;;;;11.72;82.39;99289.17;3505719;82;31750;-85
2022/09/26 18:26:04;;;;;;;56.03;35.53;;;;;;;11.77;82.92;99307.25;3518094;82;98532;-85
2022/09/26 18:31:08;;;;;;;44.73;28.40;;;;;;;11.69;83.16;99298.86;3516523;83;32230;-85
2022/09/26 18:36:11;;;;;;;62.73;37.07;;;;;;;11.59;83.28;99299.17;3448243;84;98836;-87
2022/09/26 18:41:15;;;;;;;53.17;32.93;;;;;;;11.46;83.82;99298.09;3457005;83;99245;-86
2022/09/26 18:46:16;;;;;;;46.75;31.55;;;;;;;11.46;83.82;99298.09;3468683;84;31701;-86
2022/09/26 18:51:17;;;;;;;52.30;34.37;;;;;;;11.40;84.01;99290.70;3469501;84;99053;-86
2022/09/26 19:01:41;;;;;;;45.48;27.90;;;;;;;11.25;84.47;99281.80;3462152;84;98634;-86
2022/09/26 19:06:46;;;;;;;69.10;36.35;;;;;;;11.17;84.46;99285.80;3459736;84;31769;-86
2022/09/26 19:11:48;;;;;;;66.65;36.58;;;;;;;11.11;84.77;99289.39;3449873;84;98984;-87
2022/09/26 19:16:50;;;;;;;86.80;44.80;;;;;;;11.05;84.88;99283.56;3455268;85;31729;-87
2022/09/26 19:22:06;;;;;;;64.65;33.98;;;;;;;10.97;85.02;99280.67;3462883;84;98693;-86
2022/09/26 19:27:22;;;;;;;77.50;39.08;;;;;;;10.72;84.96;99258.69;3518599;84;32946;-86
2022/09/26 19:32:35;;;;;;;65.37;33.88;;;;;;;10.72;84.96;99258.69;3513151;83;99143;-85
2022/09/26 19:37:36;;;;;;;58.13;31.23;;;;;;;10.78;85.45;99272.19;3517495;83;31691;-86
2022/09/26 19:42:37;;;;;;;53.33;30.23;;;;;;;10.70;85.50;99263.23;3504735;84;99048;-85
2022/09/26 19:47:49;;;;;;;49.67;28.03;;;;;;;10.64;85.82;99264.83;3517692;83;26639;-85
2022/09/26 19:52:53;;;;;;;48.48;27.02;;;;;;;10.57;85.80;99264.89;3505604;83;99160;-85
2022/09/26 19:58:01;;;;;;;47.30;23.62;;;;;;;10.52;85.99;99263.19;3518402;84;32312;-85
2022/09/26 20:03:03;;;;;;;41.05;24.18;;;;;;;10.44;86.29;99263.83;3507357;84;99157;-85
2022/09/26 20:08:07;;;;;;;45.55;23.92;;;;;;;10.40;86.55;99256.19;3525587;83;30142;-86
2022/09/26 20:13:08;;;;;;;40.08;20.57;;;;;;;10.34;86.47;99258.38;3511068;83;98703;-86
2022/09/26 20:18:16;;;;;;;28.93;16.60;;;;;;;10.26;86.92;99258.25;3518144;84;25980;-87
2022/09/26 20:23:21;;;;;;;24.52;13.15;;;;;;;10.19;87.06;99254.18;3510606;83;99026;-86
2022/09/26 20:28:22;;;;;;;19.55;11.35;;;;;;;10.11;87.52;99242.44;3526659;84;31627;-86
2022/09/26 20:33:25;;;;;;;20.77;12.63;;;;;;;10.07;88.04;99237.55;3512924;83;98557;-86
2022/09/26 20:38:35;;;;;;;25.37;14.85;;;;;;;10.00;89.25;99220.28;3519738;84;31674;-86
2022/09/26 20:43:38;;;;;;;23.07;13.53;;;;;;;9.99;89.23;99215.97;3506795;84;98440;-85
2022/09/26 20:48:42;;;;;;;19.13;11.43;;;;;;;9.97;89.03;99242.48;3519656;83;27947;-86
2022/09/26 20:53:44;;;;;;;23.53;12.90;;;;;;;9.93;89.85;99227.97;3513898;83;98329;-86
2022/09/26 20:58:47;;;;;;;22.80;12.30;;;;;;;9.92;90.25;99227.78;3517763;84;26013;-87
2022/09/26 21:04:04;;;;;;;23.43;12.87;;;;;;;9.92;90.30;99221.52;3505353;83;98384;-86
2022/09/26 21:09:01;;;;;;;18.60;11.03;;;;;;;9.89;90.65;99226.43;3511788;84;29859;-86
2022/09/26 21:14:04;;;;;;;18.87;12.07;;;;;;;9.86;90.89;99223.89;3471408;83;99453;-87
2022/09/26 21:19:22;;;;;;;20.75;12.15;;;;;;;9.88;91.26;99213.88;3499901;84;31655;-86
2022/09/26 21:24:51;;;;;;;22.73;14.00;;;;;;;9.88;91.62;99209.77;3499503;83;98760;-87
2022/09/26 21:30:50;;;;;;;;;;;;;;;;;;;;;
2022/09/26 21:35:18;;;;;;;23.90;14.58;;;;;;;9.86;92.12;99201.14;3449542;83;98320;-85
2022/09/26 21:40:27;;;;;;;25.97;16.20;;;;;;;9.88;92.15;99203.66;3480254;84;31685;-86
2022/09/26 21:45:28;;;;;;;25.35;16.05;;;;;;;9.89;91.99;99206.62;3475866;82;98311;-86
2022/09/26 21:50:30;;;;;;;24.40;15.70;;;;;;;9.91;92.50;99204.82;3473359;84;26586;-87
2022/09/26 21:55:36;;;;;;;27.32;17.07;;;;;;;9.89;92.81;99193.45;3454596;84;98245;-87
2022/09/26 22:00:37;;;;;;;30.45;17.70;;;;;;;9.85;93.42;99189.36;3466387;84;32330;-86
2022/09/26 22:05:39;;;;;;;25.07;16.00;;;;;;;9.81;93.45;99177.60;3489670;84;98352;-86
2022/09/26 22:10:43;;;;;;;29.25;17.12;;;;;;;9.80;93.50;99177.42;3510857;84;31741;-86
2022/09/26 22:15:44;;;;;;;26.95;16.95;;;;;;;9.80;93.69;99178.80;3497914;83;98938;-86
2022/09/26 22:20:50;;;;;;;26.68;16.70;;;;;;;9.81;93.92;99172.72;3509674;82;29881;-83
2022/09/26 22:25:51;;;;;;;29.52;18.30;;;;;;;9.79;94.11;99159.38;3516182;83;98324;-84
2022/09/26 22:30:53;;;;;;;31.45;19.40;;;;;;;9.79;94.64;99148.38;3525727;84;29830;-83
2022/09/26 22:35:54;;;;;;;28.30;18.48;;;;;;;9.79;95.42;99137.39;3517488;82;98362;-84
2022/09/26 22:41:01;;;;;;;30.30;19.57;;;;;;;9.79;95.75;99129.16;3516045;82;25919;-84
2022/09/26 22:46:10;;;;;;;25.85;16.62;;;;;;;9.84;95.99;99118.31;3513645;83;98636;-84
2022/09/26 22:51:12;;;;;;;26.33;17.25;;;;;;;9.84;95.99;99118.31;3502782;82;98536;-85
2022/09/26 22:56:15;;;;;;;26.73;16.95;;;;;;;9.87;95.65;99114.16;3536465;83;31699;-84
2022/09/26 23:01:23;;;;;;;28.17;17.65;;;;;;;9.88;95.53;99108.09;3528685;83;98779;-85
2022/09/26 23:06:24;;;;;;;28.65;18.90;;;;;;;9.90;95.45;99099.63;3535593;83;31695;-84
2022/09/26 23:11:26;;;;;;;29.10;18.33;;;;;;;9.88;95.85;99089.62;3532301;82;98895;-84
2022/09/26 23:16:30;;;;;;;26.97;17.48;;;;;;;9.88;95.63;99090.98;3523102;82;30774;-84
2022/09/26 23:21:30;;;;;;;29.15;18.77;;;;;;;9.87;95.64;99090.05;3517459;82;98379;-84
2022/09/26 23:26:32;;;;;;;34.10;20.33;;;;;;;9.92;95.85;99089.61;3533765;82;26519;-84
2022/09/26 23:31:33;;;;;;;29.43;19.33;;;;;;;9.95;96.57;99083.30;3536934;82;98375;-85
2022/09/26 23:36:34;;;;;;;33.40;21.43;;;;;;;9.98;98.05;99081.13;3530329;83;26547;-85
2022/09/26 23:41:35;;;;;;;32.85;20.82;;;;;;;10.01;98.34;99065.97;3538862;82;98825;-84
2022/09/26 23:46:37;;;;;;;31.90;21.03;;;;;;;10.06;98.15;99065.57;3527411;83;35523;-84
2022/09/26 23:51:38;;;;;;;32.10;20.37;;;;;;;10.13;98.26;99063.33;3526918;83;98624;-85
2022/09/26 23:56:40;;;;;;;33.37;22.70;;;;;;;10.16;98.38;99045.45;3523126;83;25825;-84
